Thunder radar more information blitzortung!


Radar de pluja more information rain snow radar


Visita la nostra xarxa de llocs de meteo:

Template documentation
and downloads

And another site



No particular awareness of the weather is required.    There are no Weather-warnings

Pagina Historial Weather Underground text

Diari Resum Agost 19, 2017 Unitats:  Tant    Imperial   Mètric
« Previous Dia
SegĂźent Dia »
Diari Setmana Mensual Anual Personalitzada
  Maxima: Minima: Media:
Temperatura: 86 °F /  30.0 °C 72.1 °F /  22.3 °C 76.8 °F /  24.9 °C
Punt de rosada: 68.4 °F /  20.2 °C 58.5 °F /  14.7 °C 64.8 °F /  18.2 °C
Humitat: 75 % 49 % 67 %
Wind Speed: 12.7 mph /  20.4 km/h - 3.9 mph /  6.3 km/h
RĂ fegues de vent: 12.7 mph /  20.4 km/h - -
Vent:- - South
Pression baro: 30.1 in /  1018.8 hPa 30 in /  1014.8 hPa -
Precipitacions: 0 in /  0.0 mm    
Historical Graphs
 
 
Dades de taula per Agost 19, 2017
Temps Temperatura Punt de rosada Pression baro Vent Wind Speed RĂ fegues de vent Humitat Rainfall Rate (Hourly)
00:04 79.3 °F /  26.3 °C 58.5 °F /  14.7 °C 30 in /  1014.8 hPa ENE 5.8 mph /  9.3 km/h 5.8 mph /  9.3 km/h 49 % 0 in /  0.0 mm
00:09 79.3 °F /  26.3 °C 59.2 °F /  15.1 °C 30 in /  1014.8 hPa NNE 6.9 mph /  11.1 km/h 6.9 mph /  11.1 km/h 50 % 0 in /  0.0 mm
00:14 79.2 °F /  26.2 °C 59.5 °F /  15.3 °C 30 in /  1014.8 hPa East 5.8 mph /  9.3 km/h 5.8 mph /  9.3 km/h 51 % 0 in /  0.0 mm
00:19 78.6 °F /  25.9 °C 61.2 °F /  16.2 °C 30 in /  1014.8 hPa ENE 5.8 mph /  9.3 km/h 5.8 mph /  9.3 km/h 55 % 0 in /  0.0 mm
00:24 78.3 °F /  25.7 °C 62.2 °F /  16.8 °C 30 in /  1014.8 hPa NNE 6.9 mph /  11.1 km/h 6.9 mph /  11.1 km/h 58 % 0 in /  0.0 mm
00:29 77.9 °F /  25.5 °C 63 °F /  17.2 °C 30 in /  1015.8 hPa ESE 5.8 mph /  9.3 km/h 5.8 mph /  9.3 km/h 60 % 0 in /  0.0 mm
00:34 77.7 °F /  25.4 °C 63.7 °F /  17.6 °C 30 in /  1015.8 hPa NNE 4.6 mph /  7.4 km/h 4.6 mph /  7.4 km/h 62 % 0 in /  0.0 mm
00:39 77.5 °F /  25.3 °C 64.8 °F /  18.2 °C 30 in /  1015.8 hPa NE 4.6 mph /  7.4 km/h 4.6 mph /  7.4 km/h 65 % 0 in /  0.0 mm
00:44 77.4 °F /  25.2 °C 64.8 °F /  18.2 °C 30 in /  1015.8 hPa East 5.8 mph /  9.3 km/h 5.8 mph /  9.3 km/h 65 % 0 in /  0.0 mm
00:49 77.2 °F /  25.1 °C 64.9 °F /  18.3 °C 30 in /  1015.8 hPa NE 3.5 mph /  5.6 km/h 3.5 mph /  5.6 km/h 66 % 0 in /  0.0 mm
00:50 77.2 °F /  25.1 °C 64.9 °F /  18.3 °C 30 in /  1015.8 hPa ESE 3.8 mph /  6.1 km/h 3.8 mph /  6.1 km/h 66 % 0 in /  0.0 mm
00:55 76.8 °F /  24.9 °C 65.8 °F /  18.8 °C 30 in /  1015.8 hPa East 8.1 mph /  13.0 km/h 8.1 mph /  13.0 km/h 69 % 0 in /  0.0 mm
01:00 76.6 °F /  24.8 °C 66 °F /  18.9 °C 30 in /  1015.8 hPa East 6.9 mph /  11.1 km/h 6.9 mph /  11.1 km/h 70 % 0 in /  0.0 mm
01:05 76.6 °F /  24.8 °C 66.6 °F /  19.2 °C 30 in /  1015.8 hPa East 4.6 mph /  7.4 km/h 4.6 mph /  7.4 km/h 71 % 0 in /  0.0 mm
01:10 76.5 °F /  24.7 °C 66.7 °F /  19.3 °C 30 in /  1015.8 hPa ESE 4.6 mph /  7.4 km/h 4.6 mph /  7.4 km/h 72 % 0 in /  0.0 mm
01:15 76.5 °F /  24.7 °C 66.4 °F /  19.1 °C 30 in /  1014.8 hPa East 4.6 mph /  7.4 km/h 4.6 mph /  7.4 km/h 71 % 0 in /  0.0 mm
01:20 76.5 °F /  24.7 °C 66.7 °F /  19.3 °C 30 in /  1014.8 hPa NE 2.3 mph /  3.7 km/h 2.3 mph /  3.7 km/h 72 % 0 in /  0.0 mm
01:25 76.3 °F /  24.6 °C 66.9 °F /  19.4 °C 30 in /  1014.8 hPa ESE 5.8 mph /  9.3 km/h 5.8 mph /  9.3 km/h 73 % 0 in /  0.0 mm
01:30 76.3 °F /  24.6 °C 66.9 °F /  19.4 °C 30 in /  1014.8 hPa ESE 4.6 mph /  7.4 km/h 4.6 mph /  7.4 km/h 73 % 0 in /  0.0 mm
01:35 76.3 °F /  24.6 °C 66.9 °F /  19.4 °C 30 in /  1014.8 hPa ENE 4.7 mph /  7.6 km/h 4.7 mph /  7.6 km/h 73 % 0 in /  0.0 mm
01:40 76.3 °F /  24.6 °C 66.9 °F /  19.4 °C 30 in /  1014.8 hPa ENE 3.5 mph /  5.6 km/h 3.5 mph /  5.6 km/h 73 % 0 in /  0.0 mm
01:45 76.3 °F /  24.6 °C 66.6 °F /  19.2 °C 30 in /  1015.8 hPa NNE 4.6 mph /  7.4 km/h 4.6 mph /  7.4 km/h 72 % 0 in /  0.0 mm
01:50 76.3 °F /  24.6 °C 66.9 °F /  19.4 °C 30 in /  1015.8 hPa NE 4.6 mph /  7.4 km/h 4.6 mph /  7.4 km/h 73 % 0 in /  0.0 mm
01:55 76.3 °F /  24.6 °C 67.5 °F /  19.7 °C 30 in /  1015.8 hPa ENE 4.9 mph /  7.9 km/h 4.9 mph /  7.9 km/h 74 % 0 in /  0.0 mm
02:00 76.1 °F /  24.5 °C 66.7 °F /  19.3 °C 30 in /  1015.8 hPa NE 3.6 mph /  5.8 km/h 3.6 mph /  5.8 km/h 73 % 0 in /  0.0 mm
02:05 76.1 °F /  24.5 °C 67.3 °F /  19.6 °C 30 in /  1015.8 hPa ENE 3.5 mph /  5.6 km/h 3.5 mph /  5.6 km/h 74 % 0 in /  0.0 mm
02:06 76.3 °F /  24.6 °C 67.5 °F /  19.7 °C 30 in /  1015.8 hPa ENE 3.5 mph /  5.6 km/h 3.5 mph /  5.6 km/h 74 % 0 in /  0.0 mm
02:11 76.1 °F /  24.5 °C 67.3 °F /  19.6 °C 30 in /  1015.8 hPa NNE 3.5 mph /  5.6 km/h 3.5 mph /  5.6 km/h 74 % 0 in /  0.0 mm
02:16 76.1 °F /  24.5 °C 66.7 °F /  19.3 °C 30 in /  1015.8 hPa ESE 2.6 mph /  4.2 km/h 2.6 mph /  4.2 km/h 73 % 0 in /  0.0 mm
02:21 76.1 °F /  24.5 °C 67.3 °F /  19.6 °C 30 in /  1015.8 hPa East 4.6 mph /  7.4 km/h 4.6 mph /  7.4 km/h 74 % 0 in /  0.0 mm
02:26 76.1 °F /  24.5 °C 67.3 °F /  19.6 °C 30 in /  1015.8 hPa ESE 2.3 mph /  3.7 km/h 2.3 mph /  3.7 km/h 74 % 0 in /  0.0 mm
02:31 76.1 °F /  24.5 °C 66.7 °F /  19.3 °C 30 in /  1014.8 hPa ENE 3.1 mph /  5.0 km/h 3.1 mph /  5.0 km/h 73 % 0 in /  0.0 mm
02:36 76.1 °F /  24.5 °C 67.3 °F /  19.6 °C 30 in /  1014.8 hPa East 4.6 mph /  7.4 km/h 4.6 mph /  7.4 km/h 74 % 0 in /  0.0 mm
02:41 76.1 °F /  24.5 °C 67.3 °F /  19.6 °C 30 in /  1014.8 hPa ENE 3.6 mph /  5.8 km/h 3.6 mph /  5.8 km/h 74 % 0 in /  0.0 mm
02:46 76.1 °F /  24.5 °C 66.7 °F /  19.3 °C 30 in /  1015.8 hPa ENE 3.5 mph /  5.6 km/h 3.5 mph /  5.6 km/h 73 % 0 in /  0.0 mm
02:51 76.1 °F /  24.5 °C 66.7 °F /  19.3 °C 30 in /  1015.8 hPa NE 2.3 mph /  3.7 km/h 2.3 mph /  3.7 km/h 73 % 0 in /  0.0 mm
02:56 76.1 °F /  24.5 °C 67.3 °F /  19.6 °C 30 in /  1015.8 hPa ENE 2.3 mph /  3.7 km/h 2.3 mph /  3.7 km/h 74 % 0 in /  0.0 mm
03:01 76.1 °F /  24.5 °C 66.7 °F /  19.3 °C 30 in /  1014.8 hPa ENE 2.9 mph /  4.7 km/h 2.9 mph /  4.7 km/h 73 % 0 in /  0.0 mm
03:06 76.1 °F /  24.5 °C 66.7 °F /  19.3 °C 30 in /  1014.8 hPa NE 1.4 mph /  2.3 km/h 2 mph /  3.2 km/h 73 % 0 in /  0.0 mm
03:11 75.9 °F /  24.4 °C 66.6 °F /  19.2 °C 30 in /  1014.8 hPa ESE 3.6 mph /  5.8 km/h 3.6 mph /  5.8 km/h 73 % 0 in /  0.0 mm
03:16 75.9 °F /  24.4 °C 66.9 °F /  19.4 °C 30 in /  1014.8 hPa ESE 2.3 mph /  3.7 km/h   74 % 0 in /  0.0 mm
03:21 75.9 °F /  24.4 °C 66.6 °F /  19.2 °C 30 in /  1014.8 hPa SSE 2.3 mph /  3.7 km/h 2.3 mph /  3.7 km/h 73 % 0 in /  0.0 mm
03:26 75.9 °F /  24.4 °C 66.9 °F /  19.4 °C 30 in /  1014.8 hPa WSW 2.3 mph /  3.7 km/h 2.3 mph /  3.7 km/h 74 % 0 in /  0.0 mm
03:31 75.9 °F /  24.4 °C 66.9 °F /  19.4 °C 30 in /  1014.8 hPa WSW 1.2 mph /  1.9 km/h 1.4 mph /  2.3 km/h 74 % 0 in /  0.0 mm
03:36 75.9 °F /  24.4 °C 66.9 °F /  19.4 °C 30 in /  1014.8 hPa SSE 1.6 mph /  2.6 km/h   74 % 0 in /  0.0 mm
03:41 75.7 °F /  24.3 °C 66.9 °F /  19.4 °C 30 in /  1014.8 hPa WSW 2.3 mph /  3.7 km/h 2.3 mph /  3.7 km/h 74 % 0 in /  0.0 mm
03:46 75.4 °F /  24.1 °C 66 °F /  18.9 °C 30 in /  1014.8 hPa WSW 2.3 mph /  3.7 km/h 2.3 mph /  3.7 km/h 73 % 0 in /  0.0 mm
03:51 75.2 °F /  24.0 °C 65.7 °F /  18.7 °C 30 in /  1014.8 hPa WSW 2.3 mph /  3.7 km/h 2.3 mph /  3.7 km/h 72 % 0 in /  0.0 mm
03:56 75.2 °F /  24.0 °C 65.1 °F /  18.4 °C 30 in /  1014.8 hPa WSW 1.4 mph /  2.3 km/h 1.4 mph /  2.3 km/h 71 % 0 in /  0.0 mm
04:01 75.2 °F /  24.0 °C 65.1 °F /  18.4 °C 30 in /  1014.8 hPa West 2.3 mph /  3.7 km/h 2.3 mph /  3.7 km/h 71 % 0 in /  0.0 mm
04:06 75.4 °F /  24.1 °C 65.7 °F /  18.7 °C 30 in /  1014.8 hPa WSW 1.2 mph /  1.9 km/h   72 % 0 in /  0.0 mm
04:11 75.4 °F /  24.1 °C 65.3 °F /  18.5 °C 30 in /  1014.8 hPa WSW 2.3 mph /  3.7 km/h 2.3 mph /  3.7 km/h 71 % 0 in /  0.0 mm
04:16 75.4 °F /  24.1 °C 65.7 °F /  18.7 °C 30 in /  1014.8 hPa West 1.2 mph /  1.9 km/h   72 % 0 in /  0.0 mm
04:21 75.2 °F /  24.0 °C 65.8 °F /  18.8 °C 30 in /  1014.8 hPa WSW 1.2 mph /  1.9 km/h   73 % 0 in /  0.0 mm
04:26 75.2 °F /  24.0 °C 65.8 °F /  18.8 °C 30 in /  1014.8 hPa Calm     73 % 0 in /  0.0 mm
04:31 75 °F /  23.9 °C 66.2 °F /  19.0 °C 30 in /  1014.8 hPa Calm     74 % 0 in /  0.0 mm
04:36 74.8 °F /  23.8 °C 66 °F /  18.9 °C 30 in /  1014.8 hPa Calm     74 % 0 in /  0.0 mm
04:41 74.8 °F /  23.8 °C 65.7 °F /  18.7 °C 30 in /  1014.8 hPa Calm     73 % 0 in /  0.0 mm
04:42 74.8 °F /  23.8 °C 65.7 °F /  18.7 °C 30 in /  1014.8 hPa Calm     73 % 0 in /  0.0 mm
04:47 74.7 °F /  23.7 °C 65.8 °F /  18.8 °C 30 in /  1014.8 hPa Calm     74 % 0 in /  0.0 mm
04:52 74.7 °F /  23.7 °C 65.5 °F /  18.6 °C 30 in /  1014.8 hPa SW 2.3 mph /  3.7 km/h   73 % 0 in /  0.0 mm
04:57 74.5 °F /  23.6 °C 65.3 °F /  18.5 °C 30 in /  1014.8 hPa South 2.3 mph /  3.7 km/h 2.3 mph /  3.7 km/h 73 % 0 in /  0.0 mm
05:02 74.5 °F /  23.6 °C 64.9 °F /  18.3 °C 30 in /  1014.8 hPa SW 2.3 mph /  3.7 km/h 2.3 mph /  3.7 km/h 72 % 0 in /  0.0 mm
05:07 74.5 °F /  23.6 °C 64.6 °F /  18.1 °C 30 in /  1014.8 hPa SSW 2.3 mph /  3.7 km/h 2.3 mph /  3.7 km/h 71 % 0 in /  0.0 mm
05:12 74.5 °F /  23.6 °C 64.9 °F /  18.3 °C 30 in /  1014.8 hPa East 1.2 mph /  1.9 km/h   72 % 0 in /  0.0 mm
05:17 74.1 °F /  23.4 °C 64 °F /  17.8 °C 30 in /  1014.8 hPa WSW 2.6 mph /  4.2 km/h 2.6 mph /  4.2 km/h 71 % 0 in /  0.0 mm
05:20 73.9 °F /  23.3 °C 63.5 °F /  17.5 °C 30 in /  1014.8 hPa WSW 2.3 mph /  3.7 km/h 2.3 mph /  3.7 km/h 70 % 0 in /  0.0 mm
05:21 73.9 °F /  23.3 °C 63.5 °F /  17.5 °C 30 in /  1014.8 hPa WSW 2.3 mph /  3.7 km/h 2.3 mph /  3.7 km/h 70 % 0 in /  0.0 mm
05:23 73.9 °F /  23.3 °C 63.5 °F /  17.5 °C 30 in /  1014.8 hPa WSW 2.3 mph /  3.7 km/h 2.3 mph /  3.7 km/h 70 % 0 in /  0.0 mm
05:26 73.9 °F /  23.3 °C 63.9 °F /  17.7 °C 30 in /  1014.8 hPa Calm     71 % 0 in /  0.0 mm
05:31 73.9 °F /  23.3 °C 63.9 °F /  17.7 °C 30 in /  1015.8 hPa WSW 1.2 mph /  1.9 km/h   71 % 0 in /  0.0 mm
05:36 73.8 °F /  23.2 °C 63.9 °F /  17.7 °C 30 in /  1015.8 hPa SW 1.2 mph /  1.9 km/h 1.2 mph /  1.9 km/h 71 % 0 in /  0.0 mm
05:41 73.8 °F /  23.2 °C 63.9 °F /  17.7 °C 30 in /  1015.8 hPa SW 1.4 mph /  2.3 km/h   71 % 0 in /  0.0 mm
05:46 73.9 °F /  23.3 °C 63.5 °F /  17.5 °C 30 in /  1014.8 hPa WSW 1.6 mph /  2.6 km/h 1.6 mph /  2.6 km/h 70 % 0 in /  0.0 mm
05:51 73.9 °F /  23.3 °C 63.5 °F /  17.5 °C 30 in /  1014.8 hPa WSW 2.3 mph /  3.7 km/h 2.3 mph /  3.7 km/h 70 % 0 in /  0.0 mm
05:56 73.9 °F /  23.3 °C 63.9 °F /  17.7 °C 30 in /  1014.8 hPa SW 1.2 mph /  1.9 km/h   71 % 0 in /  0.0 mm
06:01 73.9 °F /  23.3 °C 63.5 °F /  17.5 °C 30 in /  1015.8 hPa WSW 2.3 mph /  3.7 km/h 2.3 mph /  3.7 km/h 70 % 0 in /  0.0 mm
06:06 73.9 °F /  23.3 °C 63.5 °F /  17.5 °C 30 in /  1015.8 hPa West 2.4 mph /  3.9 km/h 2.4 mph /  3.9 km/h 70 % 0 in /  0.0 mm
06:11 74.1 °F /  23.4 °C 64 °F /  17.8 °C 30 in /  1015.8 hPa Calm     71 % 0 in /  0.0 mm
06:16 74.1 °F /  23.4 °C 64 °F /  17.8 °C 30 in /  1015.8 hPa Calm     71 % 0 in /  0.0 mm
06:21 74.1 °F /  23.4 °C 64.6 °F /  18.1 °C 30 in /  1015.8 hPa Calm     72 % 0 in /  0.0 mm
06:26 74.1 °F /  23.4 °C 64.6 °F /  18.1 °C 30 in /  1015.8 hPa Calm     72 % 0 in /  0.0 mm
06:31 74.1 °F /  23.4 °C 64.6 °F /  18.1 °C 30 in /  1015.8 hPa WNW 1.2 mph /  1.9 km/h   72 % 0 in /  0.0 mm
06:36 74.3 °F /  23.5 °C 64.8 °F /  18.2 °C 30 in /  1015.8 hPa NW 2.3 mph /  3.7 km/h 2.3 mph /  3.7 km/h 72 % 0 in /  0.0 mm
06:41 74.3 °F /  23.5 °C 64.8 °F /  18.2 °C 30 in /  1015.8 hPa WNW 2.3 mph /  3.7 km/h 2.3 mph /  3.7 km/h 72 % 0 in /  0.0 mm
06:46 74.3 °F /  23.5 °C 65.1 °F /  18.4 °C 30 in /  1015.8 hPa NW 1.2 mph /  1.9 km/h   73 % 0 in /  0.0 mm
06:51 74.1 °F /  23.4 °C 64.9 °F /  18.3 °C 30 in /  1015.8 hPa Calm     73 % 0 in /  0.0 mm
06:56 74.1 °F /  23.4 °C 64.9 °F /  18.3 °C 30 in /  1015.8 hPa Calm     73 % 0 in /  0.0 mm
07:01 73.9 °F /  23.3 °C 64.8 °F /  18.2 °C 30 in /  1015.8 hPa Calm     73 % 0 in /  0.0 mm
07:06 73.8 °F /  23.2 °C 64.6 °F /  18.1 °C 30 in /  1015.8 hPa SSE 2.3 mph /  3.7 km/h 2.3 mph /  3.7 km/h 73 % 0 in /  0.0 mm
07:11 73.4 °F /  23.0 °C 64.6 °F /  18.1 °C 30 in /  1015.8 hPa SSE 5.8 mph /  9.3 km/h 5.8 mph /  9.3 km/h 74 % 0 in /  0.0 mm
07:16 73 °F /  22.8 °C 63.9 °F /  17.7 °C 30 in /  1015.8 hPa South 2.3 mph /  3.7 km/h   73 % 0 in /  0.0 mm
07:21 72.7 °F /  22.6 °C 63.5 °F /  17.5 °C 30 in /  1015.8 hPa South 1.4 mph /  2.3 km/h 1.4 mph /  2.3 km/h 73 % 0 in /  0.0 mm
07:26 72.7 °F /  22.6 °C 63.1 °F /  17.3 °C 30 in /  1015.8 hPa WSW 2.3 mph /  3.7 km/h 2.3 mph /  3.7 km/h 72 % 0 in /  0.0 mm
07:31 72.5 °F /  22.5 °C 63 °F /  17.2 °C 30 in /  1015.8 hPa WSW 2.3 mph /  3.7 km/h 2.3 mph /  3.7 km/h 72 % 0 in /  0.0 mm
07:36 72.5 °F /  22.5 °C 63 °F /  17.2 °C 30 in /  1015.8 hPa West 2.4 mph /  3.9 km/h 2.4 mph /  3.9 km/h 72 % 0 in /  0.0 mm
07:41 72.5 °F /  22.5 °C 63 °F /  17.2 °C 30 in /  1015.8 hPa WSW 2.4 mph /  3.9 km/h 2.4 mph /  3.9 km/h 72 % 0 in /  0.0 mm
07:46 72.7 °F /  22.6 °C 63.1 °F /  17.3 °C 30 in /  1015.8 hPa West 2.4 mph /  3.9 km/h 2.4 mph /  3.9 km/h 72 % 0 in /  0.0 mm
07:51 72.9 °F /  22.7 °C 63.3 °F /  17.4 °C 30 in /  1015.8 hPa WSW 3.5 mph /  5.6 km/h 3.5 mph /  5.6 km/h 72 % 0 in /  0.0 mm
07:56 73 °F /  22.8 °C 63.9 °F /  17.7 °C 30 in /  1015.8 hPa WNW 2.9 mph /  4.7 km/h 2.9 mph /  4.7 km/h 73 % 0 in /  0.0 mm
08:01 73.2 °F /  22.9 °C 64 °F /  17.8 °C 30 in /  1015.8 hPa WNW 1.6 mph /  2.6 km/h 1.6 mph /  2.6 km/h 73 % 0 in /  0.0 mm
08:06 73.4 °F /  23.0 °C 63.9 °F /  17.7 °C 30 in /  1015.8 hPa West 4.6 mph /  7.4 km/h 4.6 mph /  7.4 km/h 72 % 0 in /  0.0 mm
08:11 73.6 °F /  23.1 °C 64.4 °F /  18.0 °C 30 in /  1015.8 hPa WSW 2.3 mph /  3.7 km/h 2.3 mph /  3.7 km/h 73 % 0 in /  0.0 mm
08:16 73.8 °F /  23.2 °C 64.6 °F /  18.1 °C 30 in /  1015.8 hPa WNW 3.6 mph /  5.8 km/h 3.6 mph /  5.8 km/h 73 % 0 in /  0.0 mm
08:21 73.9 °F /  23.3 °C 64.8 °F /  18.2 °C 30 in /  1015.8 hPa SW 2.3 mph /  3.7 km/h 2.3 mph /  3.7 km/h 73 % 0 in /  0.0 mm
08:26 74.5 °F /  23.6 °C 65.3 °F /  18.5 °C 30 in /  1015.8 hPa SSW 2.3 mph /  3.7 km/h 2.3 mph /  3.7 km/h 73 % 0 in /  0.0 mm
08:31 74.7 °F /  23.7 °C 65.5 °F /  18.6 °C 30 in /  1015.8 hPa SW 2.3 mph /  3.7 km/h 2.3 mph /  3.7 km/h 73 % 0 in /  0.0 mm
08:36 74.8 °F /  23.8 °C 65.1 °F /  18.4 °C 30 in /  1015.8 hPa West 2.3 mph /  3.7 km/h 2.3 mph /  3.7 km/h 72 % 0 in /  0.0 mm
08:41 75.2 °F /  24.0 °C 65.1 °F /  18.4 °C 30 in /  1015.8 hPa NNE 2.6 mph /  4.2 km/h   71 % 0 in /  0.0 mm
08:46 74.8 °F /  23.8 °C 65.1 °F /  18.4 °C 30 in /  1016.8 hPa NNW 4.3 mph /  6.9 km/h 4.3 mph /  6.9 km/h 72 % 0 in /  0.0 mm
08:51 74.3 °F /  23.5 °C 64.2 °F /  17.9 °C 30 in /  1016.8 hPa NW 4.6 mph /  7.4 km/h 4.6 mph /  7.4 km/h 71 % 0 in /  0.0 mm
08:56 74.5 °F /  23.6 °C 64 °F /  17.8 °C 30 in /  1016.8 hPa NE 4.6 mph /  7.4 km/h 4.6 mph /  7.4 km/h 70 % 0 in /  0.0 mm
09:01 74.1 °F /  23.4 °C 63.7 °F /  17.6 °C 30 in /  1016.8 hPa NNE 2.3 mph /  3.7 km/h 2.3 mph /  3.7 km/h 70 % 0 in /  0.0 mm
09:06 73.8 °F /  23.2 °C 63.3 °F /  17.4 °C 30 in /  1016.8 hPa NNW 3.8 mph /  6.1 km/h 3.8 mph /  6.1 km/h 70 % 0 in /  0.0 mm
09:12 73.6 °F /  23.1 °C 62.8 °F /  17.1 °C 30 in /  1016.8 hPa ENE 4.6 mph /  7.4 km/h 4.6 mph /  7.4 km/h 69 % 0 in /  0.0 mm
09:17 73.6 °F /  23.1 °C 62.8 °F /  17.1 °C 30 in /  1016.8 hPa ESE 3.5 mph /  5.6 km/h 3.5 mph /  5.6 km/h 69 % 0 in /  0.0 mm
09:22 73.4 °F /  23.0 °C 62.6 °F /  17.0 °C 30 in /  1016.8 hPa NE 3.1 mph /  5.0 km/h 3.1 mph /  5.0 km/h 69 % 0 in /  0.0 mm
09:27 73.4 °F /  23.0 °C 62.6 °F /  17.0 °C 30 in /  1016.8 hPa ENE 2.4 mph /  3.9 km/h 2.4 mph /  3.9 km/h 69 % 0 in /  0.0 mm
09:32 73.2 °F /  22.9 °C 62.4 °F /  16.9 °C 30 in /  1016.8 hPa NNE 1.4 mph /  2.3 km/h 1.4 mph /  2.3 km/h 69 % 0 in /  0.0 mm
09:37 73.4 °F /  23.0 °C 62.6 °F /  17.0 °C 30 in /  1016.8 hPa WNW 2.3 mph /  3.7 km/h 2.3 mph /  3.7 km/h 69 % 0 in /  0.0 mm
09:42 73.4 °F /  23.0 °C 62.6 °F /  17.0 °C 30 in /  1016.8 hPa NNW 2.3 mph /  3.7 km/h   69 % 0 in /  0.0 mm
09:47 73.6 °F /  23.1 °C 62.8 °F /  17.1 °C 30 in /  1016.8 hPa NNW 2.3 mph /  3.7 km/h 2.3 mph /  3.7 km/h 69 % 0 in /  0.0 mm
09:52 73.6 °F /  23.1 °C 62.8 °F /  17.1 °C 30 in /  1016.8 hPa NE 2.6 mph /  4.2 km/h 2.6 mph /  4.2 km/h 69 % 0 in /  0.0 mm
09:57 73.8 °F /  23.2 °C 62.4 °F /  16.9 °C 30 in /  1016.8 hPa North 3.6 mph /  5.8 km/h 3.6 mph /  5.8 km/h 68 % 0 in /  0.0 mm
10:02 73.8 °F /  23.2 °C 62.4 °F /  16.9 °C 30 in /  1016.8 hPa NNW 3.5 mph /  5.6 km/h 3.5 mph /  5.6 km/h 68 % 0 in /  0.0 mm
10:07 73.8 °F /  23.2 °C 62.4 °F /  16.9 °C 30 in /  1016.8 hPa WNW 2.3 mph /  3.7 km/h 2.3 mph /  3.7 km/h 68 % 0 in /  0.0 mm
10:12 73.8 °F /  23.2 °C 62.4 °F /  16.9 °C 30 in /  1016.8 hPa North 2.3 mph /  3.7 km/h 2.3 mph /  3.7 km/h 68 % 0 in /  0.0 mm
10:17 73.2 °F /  22.9 °C 62.8 °F /  17.1 °C 30.1 in /  1017.8 hPa WNW 2.3 mph /  3.7 km/h 2.3 mph /  3.7 km/h 70 % 0 in /  0.0 mm
10:22 72.7 °F /  22.6 °C 62.8 °F /  17.1 °C 30.1 in /  1017.8 hPa ENE 2.3 mph /  3.7 km/h 2.3 mph /  3.7 km/h 71 % 0 in /  0.0 mm
10:27 72.3 °F /  22.4 °C 62.8 °F /  17.1 °C 30.1 in /  1017.8 hPa ENE 2.3 mph /  3.7 km/h 2.3 mph /  3.7 km/h 72 % 0 in /  0.0 mm
10:32 72.1 °F /  22.3 °C 63 °F /  17.2 °C 30.1 in /  1017.8 hPa NNE 2.3 mph /  3.7 km/h   73 % 0 in /  0.0 mm
10:37 72.1 °F /  22.3 °C 63.3 °F /  17.4 °C 30.1 in /  1017.8 hPa NE 1.2 mph /  1.9 km/h   74 % 0 in /  0.0 mm
10:42 72.1 °F /  22.3 °C 63.3 °F /  17.4 °C 30.1 in /  1017.8 hPa NNE 2.3 mph /  3.7 km/h 2.3 mph /  3.7 km/h 74 % 0 in /  0.0 mm
10:47 72.3 °F /  22.4 °C 63.7 °F /  17.6 °C 30.1 in /  1017.8 hPa NNE 2.3 mph /  3.7 km/h 2.3 mph /  3.7 km/h 74 % 0 in /  0.0 mm
10:52 72.5 °F /  22.5 °C 64 °F /  17.8 °C 30.1 in /  1017.8 hPa NNE 2.6 mph /  4.2 km/h 2.6 mph /  4.2 km/h 75 % 0 in /  0.0 mm
10:57 72.5 °F /  22.5 °C 63.7 °F /  17.6 °C 30.1 in /  1017.8 hPa North 3.5 mph /  5.6 km/h 3.5 mph /  5.6 km/h 74 % 0 in /  0.0 mm
11:02 73 °F /  22.8 °C 64.2 °F /  17.9 °C 30.1 in /  1017.8 hPa ENE 3.5 mph /  5.6 km/h 3.5 mph /  5.6 km/h 74 % 0 in /  0.0 mm
11:07 73 °F /  22.8 °C 63.9 °F /  17.7 °C 30.1 in /  1017.8 hPa NE 2.9 mph /  4.7 km/h 2.9 mph /  4.7 km/h 73 % 0 in /  0.0 mm
11:12 73.2 °F /  22.9 °C 64 °F /  17.8 °C 30.1 in /  1017.8 hPa ENE 3.5 mph /  5.6 km/h 3.5 mph /  5.6 km/h 73 % 0 in /  0.0 mm
11:17 73.2 °F /  22.9 °C 63.7 °F /  17.6 °C 30.1 in /  1017.8 hPa NNE 3.5 mph /  5.6 km/h 3.5 mph /  5.6 km/h 72 % 0 in /  0.0 mm
11:22 73.8 °F /  23.2 °C 64.2 °F /  17.9 °C 30.1 in /  1017.8 hPa NNE 3.5 mph /  5.6 km/h 3.5 mph /  5.6 km/h 72 % 0 in /  0.0 mm
11:27 73.9 °F /  23.3 °C 63.9 °F /  17.7 °C 30.1 in /  1017.8 hPa ENE 4.6 mph /  7.4 km/h 4.6 mph /  7.4 km/h 71 % 0 in /  0.0 mm
11:32 74.1 °F /  23.4 °C 63.7 °F /  17.6 °C 30.1 in /  1017.8 hPa NE 4.6 mph /  7.4 km/h 4.6 mph /  7.4 km/h 70 % 0 in /  0.0 mm
11:37 74.1 °F /  23.4 °C 63.7 °F /  17.6 °C 30.1 in /  1017.8 hPa NNE 3.5 mph /  5.6 km/h 3.5 mph /  5.6 km/h 70 % 0 in /  0.0 mm
11:42 74.3 °F /  23.5 °C 63.5 °F /  17.5 °C 30.1 in /  1017.8 hPa WNW 1.2 mph /  1.9 km/h   69 % 0 in /  0.0 mm
11:47 74.5 °F /  23.6 °C 64.6 °F /  18.1 °C 30.1 in /  1017.8 hPa West 1.2 mph /  1.9 km/h   71 % 0 in /  0.0 mm
11:52 74.3 °F /  23.5 °C 64.2 °F /  17.9 °C 30.1 in /  1017.8 hPa ENE 2.3 mph /  3.7 km/h 2.3 mph /  3.7 km/h 71 % 0 in /  0.0 mm
11:57 74.3 °F /  23.5 °C 63.9 °F /  17.7 °C 30.1 in /  1017.8 hPa East 1.2 mph /  1.9 km/h   70 % 0 in /  0.0 mm
12:02 74.5 °F /  23.6 °C 63.7 °F /  17.6 °C 30.1 in /  1017.8 hPa NNE 2.3 mph /  3.7 km/h 2.3 mph /  3.7 km/h 69 % 0 in /  0.0 mm
12:07 74.7 °F /  23.7 °C 63.9 °F /  17.7 °C 30.1 in /  1017.8 hPa East 1.2 mph /  1.9 km/h 1.2 mph /  1.9 km/h 69 % 0 in /  0.0 mm
12:12 74.8 °F /  23.8 °C 64 °F /  17.8 °C 30.1 in /  1017.8 hPa NE 2 mph /  3.2 km/h 2 mph /  3.2 km/h 69 % 0 in /  0.0 mm
12:17 75 °F /  23.9 °C 64.2 °F /  17.9 °C 30.1 in /  1017.8 hPa ENE 2.9 mph /  4.7 km/h 2.9 mph /  4.7 km/h 69 % 0 in /  0.0 mm
12:22 75 °F /  23.9 °C 64.6 °F /  18.1 °C 30.1 in /  1017.8 hPa ESE 2.3 mph /  3.7 km/h 2.3 mph /  3.7 km/h 70 % 0 in /  0.0 mm
12:27 75.6 °F /  24.2 °C 64.8 °F /  18.2 °C 30.1 in /  1017.8 hPa ESE 2.9 mph /  4.7 km/h 2.9 mph /  4.7 km/h 69 % 0 in /  0.0 mm
12:32 76.5 °F /  24.7 °C 66.4 °F /  19.1 °C 30.1 in /  1017.8 hPa East 4 mph /  6.4 km/h 4 mph /  6.4 km/h 71 % 0 in /  0.0 mm
12:37 77 °F /  25.0 °C 65.7 °F /  18.7 °C 30.1 in /  1017.8 hPa SE 2.3 mph /  3.7 km/h 2.3 mph /  3.7 km/h 68 % 0 in /  0.0 mm
12:42 77 °F /  25.0 °C 65.7 °F /  18.7 °C 30 in /  1016.8 hPa ESE 3.5 mph /  5.6 km/h 3.5 mph /  5.6 km/h 68 % 0 in /  0.0 mm
12:47 77 °F /  25.0 °C 65.1 °F /  18.4 °C 30 in /  1016.8 hPa ENE 4.6 mph /  7.4 km/h 4.6 mph /  7.4 km/h 67 % 0 in /  0.0 mm
12:52 77.2 °F /  25.1 °C 65.5 °F /  18.6 °C 30 in /  1016.8 hPa SE 4.6 mph /  7.4 km/h 4.6 mph /  7.4 km/h 67 % 0 in /  0.0 mm
12:57 77 °F /  25.0 °C 65.1 °F /  18.4 °C 30 in /  1016.8 hPa East 4.6 mph /  7.4 km/h 4.6 mph /  7.4 km/h 67 % 0 in /  0.0 mm
13:02 77.4 °F /  25.2 °C 65.5 °F /  18.6 °C 30 in /  1016.8 hPa SSW 4.6 mph /  7.4 km/h 4.6 mph /  7.4 km/h 67 % 0 in /  0.0 mm
13:07 78.3 °F /  25.7 °C 66.4 °F /  19.1 °C 30 in /  1016.8 hPa SSE 3.1 mph /  5.0 km/h 3.1 mph /  5.0 km/h 67 % 0 in /  0.0 mm
13:12 77.5 °F /  25.3 °C 65.7 °F /  18.7 °C 30 in /  1016.8 hPa SSE 5.8 mph /  9.3 km/h 5.8 mph /  9.3 km/h 67 % 0 in /  0.0 mm
13:17 77.7 °F /  25.4 °C 65.8 °F /  18.8 °C 30 in /  1016.8 hPa East 4.6 mph /  7.4 km/h 4.6 mph /  7.4 km/h 67 % 0 in /  0.0 mm
13:22 77.7 °F /  25.4 °C 65.8 °F /  18.8 °C 30 in /  1016.8 hPa ESE 5.8 mph /  9.3 km/h 5.8 mph /  9.3 km/h 67 % 0 in /  0.0 mm
13:27 77.4 °F /  25.2 °C 66 °F /  18.9 °C 30 in /  1016.8 hPa ENE 4.6 mph /  7.4 km/h 4.6 mph /  7.4 km/h 68 % 0 in /  0.0 mm
13:32 77.5 °F /  25.3 °C 66.9 °F /  19.4 °C 30 in /  1016.8 hPa East 6.9 mph /  11.1 km/h 6.9 mph /  11.1 km/h 70 % 0 in /  0.0 mm
13:37 77.4 °F /  25.2 °C 67.3 °F /  19.6 °C 30 in /  1016.8 hPa ESE 8.1 mph /  13.0 km/h 8.1 mph /  13.0 km/h 71 % 0 in /  0.0 mm
13:42 77.4 °F /  25.2 °C 67.6 °F /  19.8 °C 30 in /  1016.8 hPa ENE 4.6 mph /  7.4 km/h 4.6 mph /  7.4 km/h 72 % 0 in /  0.0 mm
13:47 77.2 °F /  25.1 °C 67.5 °F /  19.7 °C 30 in /  1016.8 hPa ESE 6.2 mph /  10.0 km/h 6.2 mph /  10.0 km/h 72 % 0 in /  0.0 mm
13:52 77.2 °F /  25.1 °C 67.5 °F /  19.7 °C 30 in /  1016.8 hPa ENE 4.6 mph /  7.4 km/h 4.6 mph /  7.4 km/h 72 % 0 in /  0.0 mm
13:57 77.5 °F /  25.3 °C 67.8 °F /  19.9 °C 30 in /  1016.8 hPa East 4.6 mph /  7.4 km/h 4.6 mph /  7.4 km/h 72 % 0 in /  0.0 mm
14:02 77.7 °F /  25.4 °C 68 °F /  20.0 °C 30 in /  1016.8 hPa ENE 3.5 mph /  5.6 km/h 3.5 mph /  5.6 km/h 72 % 0 in /  0.0 mm
14:07 77.5 °F /  25.3 °C 67.8 °F /  19.9 °C 30 in /  1016.8 hPa ESE 3.5 mph /  5.6 km/h 3.5 mph /  5.6 km/h 72 % 0 in /  0.0 mm
14:12 78.1 °F /  25.6 °C 68.4 °F /  20.2 °C 30 in /  1016.8 hPa East 2.3 mph /  3.7 km/h 2.6 mph /  4.2 km/h 72 % 0 in /  0.0 mm
14:17 78.6 °F /  25.9 °C 68.4 °F /  20.2 °C 30 in /  1016.8 hPa NNE 4.6 mph /  7.4 km/h 4.6 mph /  7.4 km/h 71 % 0 in /  0.0 mm
14:22 78.6 °F /  25.9 °C 68 °F /  20.0 °C 30 in /  1016.8 hPa ESE 3.5 mph /  5.6 km/h 3.5 mph /  5.6 km/h 70 % 0 in /  0.0 mm
14:27 79.2 °F /  26.2 °C 68.2 °F /  20.1 °C 30.1 in /  1017.8 hPa SW 4.6 mph /  7.4 km/h 4.6 mph /  7.4 km/h 69 % 0 in /  0.0 mm
14:32 80.6 °F /  27.0 °C 68.2 °F /  20.1 °C 30.1 in /  1017.8 hPa SSE 4.6 mph /  7.4 km/h 4.6 mph /  7.4 km/h 66 % 0 in /  0.0 mm
14:37 81.3 °F /  27.4 °C 68 °F /  20.0 °C 30.1 in /  1017.8 hPa ESE 5.8 mph /  9.3 km/h 5.8 mph /  9.3 km/h 64 % 0 in /  0.0 mm
14:42 82.6 °F /  28.1 °C 68.2 °F /  20.1 °C 30 in /  1016.8 hPa SSE 8.1 mph /  13.0 km/h 8.1 mph /  13.0 km/h 62 % 0 in /  0.0 mm
14:47 82.9 °F /  28.3 °C 67.6 °F /  19.8 °C 30 in /  1016.8 hPa South 7.6 mph /  12.2 km/h 7.6 mph /  12.2 km/h 60 % 0 in /  0.0 mm
14:52 83.5 °F /  28.6 °C 68.2 °F /  20.1 °C 30 in /  1016.8 hPa WSW 5.9 mph /  9.5 km/h 5.9 mph /  9.5 km/h 60 % 0 in /  0.0 mm
14:57 83.5 °F /  28.6 °C 67.6 °F /  19.8 °C 30 in /  1015.8 hPa South 6.9 mph /  11.1 km/h 6.9 mph /  11.1 km/h 59 % 0 in /  0.0 mm
15:02 84 °F /  28.9 °C 67.1 °F /  19.5 °C 30 in /  1015.8 hPa SSE 11.5 mph /  18.5 km/h 11.5 mph /  18.5 km/h 57 % 0 in /  0.0 mm
15:07 84.4 °F /  29.1 °C 66.9 °F /  19.4 °C 30 in /  1015.8 hPa SSW 8.1 mph /  13.0 km/h 8.1 mph /  13.0 km/h 56 % 0 in /  0.0 mm
15:12 84.2 °F /  29.0 °C 66.4 °F /  19.1 °C 30 in /  1015.8 hPa SSW 10.4 mph /  16.7 km/h 10.4 mph /  16.7 km/h 55 % 0 in /  0.0 mm
15:17 85.5 °F /  29.7 °C 67.5 °F /  19.7 °C 30 in /  1015.8 hPa SW 10.5 mph /  16.9 km/h 10.5 mph /  16.9 km/h 55 % 0 in /  0.0 mm
15:22 85.8 °F /  29.9 °C 67.8 °F /  19.9 °C 30 in /  1015.8 hPa SW 6.9 mph /  11.1 km/h 6.9 mph /  11.1 km/h 55 % 0 in /  0.0 mm
15:27 85.1 °F /  29.5 °C 66 °F /  18.9 °C 30 in /  1015.8 hPa WNW 9.2 mph /  14.8 km/h 9.2 mph /  14.8 km/h 53 % 0 in /  0.0 mm
15:32 85.5 °F /  29.7 °C 66.4 °F /  19.1 °C 30 in /  1015.8 hPa SW 8.1 mph /  13.0 km/h 8.1 mph /  13.0 km/h 53 % 0 in /  0.0 mm
15:37 85.6 °F /  29.8 °C 66 °F /  18.9 °C 30 in /  1015.8 hPa WSW 4.6 mph /  7.4 km/h 4.6 mph /  7.4 km/h 52 % 0 in /  0.0 mm
15:42 86 °F /  30.0 °C 66.4 °F /  19.1 °C 30 in /  1015.8 hPa SSW 8.1 mph /  13.0 km/h 8.1 mph /  13.0 km/h 52 % 0 in /  0.0 mm
15:47 85.6 °F /  29.8 °C 66 °F /  18.9 °C 30 in /  1015.8 hPa SSW 8.1 mph /  13.0 km/h 8.1 mph /  13.0 km/h 52 % 0 in /  0.0 mm
15:52 85.1 °F /  29.5 °C 65.5 °F /  18.6 °C 30 in /  1015.8 hPa SSW 5.8 mph /  9.3 km/h 5.8 mph /  9.3 km/h 52 % 0 in /  0.0 mm
15:57 85.1 °F /  29.5 °C 65.5 °F /  18.6 °C 30 in /  1015.8 hPa SW 6.7 mph /  10.8 km/h 6.7 mph /  10.8 km/h 52 % 0 in /  0.0 mm
16:02 84.6 °F /  29.2 °C 64.9 °F /  18.3 °C 30 in /  1015.8 hPa SW 5.8 mph /  9.3 km/h 5.8 mph /  9.3 km/h 52 % 0 in /  0.0 mm
16:07 84.9 °F /  29.4 °C 64.8 °F /  18.2 °C 30 in /  1015.8 hPa South 8.1 mph /  13.0 km/h 8.1 mph /  13.0 km/h 51 % 0 in /  0.0 mm
16:12 85.1 °F /  29.5 °C 65.5 °F /  18.6 °C 30 in /  1015.8 hPa South 4.6 mph /  7.4 km/h 4.6 mph /  7.4 km/h 52 % 0 in /  0.0 mm
16:17 85.5 °F /  29.7 °C 65.3 °F /  18.5 °C 30 in /  1015.8 hPa WSW 6.4 mph /  10.3 km/h 6.4 mph /  10.3 km/h 51 % 0 in /  0.0 mm
16:22 85.1 °F /  29.5 °C 64.9 °F /  18.3 °C 30 in /  1015.8 hPa South 11.5 mph /  18.5 km/h 11.5 mph /  18.5 km/h 51 % 0 in /  0.0 mm
16:27 85.5 °F /  29.7 °C 65.3 °F /  18.5 °C 30 in /  1015.8 hPa South 5.8 mph /  9.3 km/h 5.8 mph /  9.3 km/h 51 % 0 in /  0.0 mm
16:32 84.9 °F /  29.4 °C 64.8 °F /  18.2 °C 30 in /  1015.8 hPa SW 7.1 mph /  11.4 km/h 7.1 mph /  11.4 km/h 51 % 0 in /  0.0 mm
16:37 84.7 °F /  29.3 °C 64.6 °F /  18.1 °C 30 in /  1015.8 hPa SSW 5.4 mph /  8.7 km/h 5.4 mph /  8.7 km/h 51 % 0 in /  0.0 mm
16:42 84.9 °F /  29.4 °C 64.8 °F /  18.2 °C 30 in /  1015.8 hPa SSW 9.8 mph /  15.8 km/h 9.8 mph /  15.8 km/h 51 % 0 in /  0.0 mm
16:47 84 °F /  28.9 °C 64.6 °F /  18.1 °C 30 in /  1015.8 hPa SSW 6.9 mph /  11.1 km/h 6.9 mph /  11.1 km/h 52 % 0 in /  0.0 mm
16:52 84.4 °F /  29.1 °C 64.2 °F /  17.9 °C 30 in /  1015.8 hPa WNW 6.9 mph /  11.1 km/h 6.9 mph /  11.1 km/h 51 % 0 in /  0.0 mm
16:57 84 °F /  28.9 °C 64.6 °F /  18.1 °C 30 in /  1015.8 hPa West 5.8 mph /  9.3 km/h 5.8 mph /  9.3 km/h 52 % 0 in /  0.0 mm
17:02 83.8 °F /  28.8 °C 64.2 °F /  17.9 °C 30 in /  1015.8 hPa SW 12.7 mph /  20.4 km/h 12.7 mph /  20.4 km/h 52 % 0 in /  0.0 mm
17:07 84.6 °F /  29.2 °C 64.9 °F /  18.3 °C 30 in /  1015.8 hPa SW 4.9 mph /  7.9 km/h 4.9 mph /  7.9 km/h 52 % 0 in /  0.0 mm
17:12 84.4 °F /  29.1 °C 64.8 °F /  18.2 °C 30 in /  1015.8 hPa WSW 8.1 mph /  13.0 km/h 8.1 mph /  13.0 km/h 52 % 0 in /  0.0 mm
17:17 84.4 °F /  29.1 °C 64.8 °F /  18.2 °C 30 in /  1015.8 hPa SSW 5.8 mph /  9.3 km/h 5.8 mph /  9.3 km/h 52 % 0 in /  0.0 mm
17:22 84.6 °F /  29.2 °C 64.9 °F /  18.3 °C 30 in /  1015.8 hPa WSW 10.9 mph /  17.5 km/h 10.9 mph /  17.5 km/h 52 % 0 in /  0.0 mm
17:27 83.7 °F /  28.7 °C 64.8 °F /  18.2 °C 30 in /  1015.8 hPa South 4.6 mph /  7.4 km/h 4.6 mph /  7.4 km/h 53 % 0 in /  0.0 mm
17:32 83.8 °F /  28.8 °C 64.9 °F /  18.3 °C 30 in /  1015.8 hPa WSW 6.4 mph /  10.3 km/h 6.4 mph /  10.3 km/h 53 % 0 in /  0.0 mm
17:37 82.6 °F /  28.1 °C 64.2 °F /  17.9 °C 30 in /  1015.8 hPa SSW 6.9 mph /  11.1 km/h 6.9 mph /  11.1 km/h 54 % 0 in /  0.0 mm
17:42 82.9 °F /  28.3 °C 64.6 °F /  18.1 °C 30 in /  1015.8 hPa WSW 9.2 mph /  14.8 km/h 9.2 mph /  14.8 km/h 54 % 0 in /  0.0 mm
17:47 82.4 °F /  28.0 °C 64 °F /  17.8 °C 30 in /  1015.8 hPa SW 11.5 mph /  18.5 km/h 11.5 mph /  18.5 km/h 54 % 0 in /  0.0 mm
17:52 82.6 °F /  28.1 °C 64.8 °F /  18.2 °C 30 in /  1015.8 hPa South 6 mph /  9.7 km/h 6 mph /  9.7 km/h 55 % 0 in /  0.0 mm
17:57 82.4 °F /  28.0 °C 64.6 °F /  18.1 °C 30 in /  1015.8 hPa SSW 8.1 mph /  13.0 km/h 8.1 mph /  13.0 km/h 55 % 0 in /  0.0 mm
18:02 82.6 °F /  28.1 °C 64.8 °F /  18.2 °C 30 in /  1015.8 hPa SSE 3.5 mph /  5.6 km/h 3.5 mph /  5.6 km/h 55 % 0 in /  0.0 mm
18:07 82.4 °F /  28.0 °C 64.6 °F /  18.1 °C 30 in /  1015.8 hPa SSE 8.1 mph /  13.0 km/h 8.1 mph /  13.0 km/h 55 % 0 in /  0.0 mm
18:12 82.2 °F /  27.9 °C 64.4 °F /  18.0 °C 30 in /  1015.8 hPa SW 4.9 mph /  7.9 km/h 4.9 mph /  7.9 km/h 55 % 0 in /  0.0 mm
18:17 82 °F /  27.8 °C 64.2 °F /  17.9 °C 30 in /  1015.8 hPa SW 4.6 mph /  7.4 km/h 4.6 mph /  7.4 km/h 55 % 0 in /  0.0 mm
18:22 81.9 °F /  27.7 °C 64.6 °F /  18.1 °C 30 in /  1015.8 hPa SSW 6.9 mph /  11.1 km/h 6.9 mph /  11.1 km/h 56 % 0 in /  0.0 mm
18:27 81.9 °F /  27.7 °C 64.6 °F /  18.1 °C 30 in /  1014.8 hPa WSW 4.6 mph /  7.4 km/h 4.6 mph /  7.4 km/h 56 % 0 in /  0.0 mm
18:32 81.5 °F /  27.5 °C 64.2 °F /  17.9 °C 30 in /  1014.8 hPa SSE 8.1 mph /  13.0 km/h 8.1 mph /  13.0 km/h 56 % 0 in /  0.0 mm
18:37 81.5 °F /  27.5 °C 64.2 °F /  17.9 °C 30 in /  1014.8 hPa West 6.9 mph /  11.1 km/h 6.9 mph /  11.1 km/h 56 % 0 in /  0.0 mm
18:42 81.5 °F /  27.5 °C 64.2 °F /  17.9 °C 30 in /  1014.8 hPa WSW 5.8 mph /  9.3 km/h 5.8 mph /  9.3 km/h 56 % 0 in /  0.0 mm
18:47 81.1 °F /  27.3 °C 64 °F /  17.8 °C 30 in /  1014.8 hPa SW 6.9 mph /  11.1 km/h 6.9 mph /  11.1 km/h 56 % 0 in /  0.0 mm
18:52 81 °F /  27.2 °C 64.2 °F /  17.9 °C 30 in /  1014.8 hPa SSW 3.5 mph /  5.6 km/h 3.5 mph /  5.6 km/h 57 % 0 in /  0.0 mm
18:57 80.8 °F /  27.1 °C 64 °F /  17.8 °C 30 in /  1015.8 hPa South 5.4 mph /  8.7 km/h 5.4 mph /  8.7 km/h 57 % 0 in /  0.0 mm
19:02 80.6 °F /  27.0 °C 64 °F /  17.8 °C 30 in /  1015.8 hPa SSW 5.8 mph /  9.3 km/h 5.8 mph /  9.3 km/h 57 % 0 in /  0.0 mm
19:07 80.2 °F /  26.8 °C 64 °F /  17.8 °C 30 in /  1015.8 hPa SSE 4.6 mph /  7.4 km/h 4.6 mph /  7.4 km/h 58 % 0 in /  0.0 mm
19:12 79.9 °F /  26.6 °C 64.2 °F /  17.9 °C 30 in /  1015.8 hPa SW 8.1 mph /  13.0 km/h 8.1 mph /  13.0 km/h 59 % 0 in /  0.0 mm
19:17 79.3 °F /  26.3 °C 63.9 °F /  17.7 °C 30 in /  1015.8 hPa SSW 4.6 mph /  7.4 km/h 4.6 mph /  7.4 km/h 59 % 0 in /  0.0 mm
19:22 79 °F /  26.1 °C 63.9 °F /  17.7 °C 30 in /  1015.8 hPa SW 9.2 mph /  14.8 km/h 9.2 mph /  14.8 km/h 60 % 0 in /  0.0 mm
19:27 79 °F /  26.1 °C 63.9 °F /  17.7 °C 30 in /  1014.8 hPa SW 4.6 mph /  7.4 km/h 4.6 mph /  7.4 km/h 60 % 0 in /  0.0 mm
19:32 78.6 °F /  25.9 °C 64 °F /  17.8 °C 30 in /  1014.8 hPa SW 4.6 mph /  7.4 km/h 4.6 mph /  7.4 km/h 61 % 0 in /  0.0 mm
19:37 78.1 °F /  25.6 °C 63.5 °F /  17.5 °C 30 in /  1014.8 hPa WSW 8.1 mph /  13.0 km/h 8.1 mph /  13.0 km/h 61 % 0 in /  0.0 mm
19:42 77.5 °F /  25.3 °C 63.5 °F /  17.5 °C 30 in /  1015.8 hPa South 5.8 mph /  9.3 km/h 5.8 mph /  9.3 km/h 62 % 0 in /  0.0 mm
19:47 77.5 °F /  25.3 °C 63.5 °F /  17.5 °C 30 in /  1015.8 hPa SSE 5.4 mph /  8.7 km/h 5.4 mph /  8.7 km/h 62 % 0 in /  0.0 mm
19:52 77.4 °F /  25.2 °C 63.3 °F /  17.4 °C 30 in /  1015.8 hPa SSW 7.4 mph /  11.9 km/h 7.4 mph /  11.9 km/h 62 % 0 in /  0.0 mm
19:57 77 °F /  25.0 °C 63.3 °F /  17.4 °C 30 in /  1015.8 hPa WSW 6.9 mph /  11.1 km/h 6.9 mph /  11.1 km/h 63 % 0 in /  0.0 mm
20:02 77 °F /  25.0 °C 63.3 °F /  17.4 °C 30 in /  1015.8 hPa West 4.6 mph /  7.4 km/h 4.6 mph /  7.4 km/h 63 % 0 in /  0.0 mm
20:03 76.8 °F /  24.9 °C 63.7 °F /  17.6 °C 30 in /  1015.8 hPa SSW 5.8 mph /  9.3 km/h 5.8 mph /  9.3 km/h 64 % 0 in /  0.0 mm
20:09 76.6 °F /  24.8 °C 63.5 °F /  17.5 °C 30 in /  1015.8 hPa SW 5.8 mph /  9.3 km/h 5.8 mph /  9.3 km/h 64 % 0 in /  0.0 mm
20:13 76.5 °F /  24.7 °C 63.9 °F /  17.7 °C 30 in /  1015.8 hPa SE 4.6 mph /  7.4 km/h 4.6 mph /  7.4 km/h 65 % 0 in /  0.0 mm
20:18 76.3 °F /  24.6 °C 63.7 °F /  17.6 °C 30 in /  1015.8 hPa South 5.8 mph /  9.3 km/h 5.8 mph /  9.3 km/h 65 % 0 in /  0.0 mm
20:23 76.1 °F /  24.5 °C 63.5 °F /  17.5 °C 30 in /  1015.8 hPa SE 1.2 mph /  1.9 km/h 1.2 mph /  1.9 km/h 65 % 0 in /  0.0 mm
20:28 76.1 °F /  24.5 °C 63.5 °F /  17.5 °C 30 in /  1016.8 hPa SW 5.9 mph /  9.5 km/h 5.9 mph /  9.5 km/h 65 % 0 in /  0.0 mm
20:33 75.9 °F /  24.4 °C 63.7 °F /  17.6 °C 30 in /  1016.8 hPa WSW 2.4 mph /  3.9 km/h 2.4 mph /  3.9 km/h 66 % 0 in /  0.0 mm
20:38 75.7 °F /  24.3 °C 63.7 °F /  17.6 °C 30 in /  1016.8 hPa SW 5.8 mph /  9.3 km/h 5.8 mph /  9.3 km/h 66 % 0 in /  0.0 mm
20:43 75.7 °F /  24.3 °C 63.7 °F /  17.6 °C 30.1 in /  1017.8 hPa SW 6.9 mph /  11.1 km/h 6.9 mph /  11.1 km/h 66 % 0 in /  0.0 mm
20:48 75.6 °F /  24.2 °C 63.9 °F /  17.7 °C 30.1 in /  1017.8 hPa SW 4.6 mph /  7.4 km/h 4.6 mph /  7.4 km/h 67 % 0 in /  0.0 mm
20:53 75.4 °F /  24.1 °C 63.1 °F /  17.3 °C 30.1 in /  1017.8 hPa South 4.6 mph /  7.4 km/h 4.6 mph /  7.4 km/h 66 % 0 in /  0.0 mm
20:58 75.6 °F /  24.2 °C 63.9 °F /  17.7 °C 30.1 in /  1017.8 hPa SW 2.3 mph /  3.7 km/h   67 % 0 in /  0.0 mm
21:03 75.6 °F /  24.2 °C 63.9 °F /  17.7 °C 30.1 in /  1017.8 hPa SW 2.3 mph /  3.7 km/h 2.3 mph /  3.7 km/h 67 % 0 in /  0.0 mm
21:08 75.6 °F /  24.2 °C 63.9 °F /  17.7 °C 30.1 in /  1017.8 hPa SW 3.1 mph /  5.0 km/h 3.1 mph /  5.0 km/h 67 % 0 in /  0.0 mm
21:13 75.4 °F /  24.1 °C 63.7 °F /  17.6 °C 30.1 in /  1017.8 hPa SW 4.6 mph /  7.4 km/h 4.6 mph /  7.4 km/h 67 % 0 in /  0.0 mm
21:18 75.2 °F /  24.0 °C 63.5 °F /  17.5 °C 30.1 in /  1017.8 hPa SW 3.3 mph /  5.3 km/h 3.3 mph /  5.3 km/h 67 % 0 in /  0.0 mm
21:23 75.2 °F /  24.0 °C 63.5 °F /  17.5 °C 30.1 in /  1017.8 hPa South 3.5 mph /  5.6 km/h 3.5 mph /  5.6 km/h 67 % 0 in /  0.0 mm
21:28 75 °F /  23.9 °C 63.7 °F /  17.6 °C 30.1 in /  1017.8 hPa SSW 2.4 mph /  3.9 km/h 2.4 mph /  3.9 km/h 68 % 0 in /  0.0 mm
21:33 75 °F /  23.9 °C 63.7 °F /  17.6 °C 30.1 in /  1017.8 hPa SW 4.6 mph /  7.4 km/h 4.6 mph /  7.4 km/h 68 % 0 in /  0.0 mm
21:38 74.8 °F /  23.8 °C 64 °F /  17.8 °C 30.1 in /  1017.8 hPa SW 0.9 mph /  1.4 km/h 0.9 mph /  1.4 km/h 69 % 0 in /  0.0 mm
21:43 74.8 °F /  23.8 °C 64 °F /  17.8 °C 30 in /  1016.8 hPa WSW 3.1 mph /  5.0 km/h 3.1 mph /  5.0 km/h 69 % 0 in /  0.0 mm
21:48 74.8 °F /  23.8 °C 64 °F /  17.8 °C 30 in /  1016.8 hPa SW 4.6 mph /  7.4 km/h 4.6 mph /  7.4 km/h 69 % 0 in /  0.0 mm
21:53 74.7 °F /  23.7 °C 63.9 °F /  17.7 °C 30 in /  1016.8 hPa SW 2.3 mph /  3.7 km/h 2.3 mph /  3.7 km/h 69 % 0 in /  0.0 mm
21:58 74.7 °F /  23.7 °C 63.9 °F /  17.7 °C 30.1 in /  1017.8 hPa SW 2.3 mph /  3.7 km/h 2.3 mph /  3.7 km/h 69 % 0 in /  0.0 mm
22:03 74.7 °F /  23.7 °C 63.9 °F /  17.7 °C 30.1 in /  1017.8 hPa WSW 4.6 mph /  7.4 km/h 4.6 mph /  7.4 km/h 69 % 0 in /  0.0 mm
22:08 74.7 °F /  23.7 °C 63.9 °F /  17.7 °C 30.1 in /  1017.8 hPa SW 3.5 mph /  5.6 km/h 3.5 mph /  5.6 km/h 69 % 0 in /  0.0 mm
22:13 74.5 °F /  23.6 °C 63.7 °F /  17.6 °C 30.1 in /  1017.8 hPa WSW 3.5 mph /  5.6 km/h 3.5 mph /  5.6 km/h 69 % 0 in /  0.0 mm
22:18 74.5 °F /  23.6 °C 63.7 °F /  17.6 °C 30.1 in /  1017.8 hPa SW 3.1 mph /  5.0 km/h 3.1 mph /  5.0 km/h 69 % 0 in /  0.0 mm
22:23 74.5 °F /  23.6 °C 64 °F /  17.8 °C 30.1 in /  1017.8 hPa SW 2.6 mph /  4.2 km/h 2.6 mph /  4.2 km/h 70 % 0 in /  0.0 mm
22:28 74.5 °F /  23.6 °C 64 °F /  17.8 °C 30.1 in /  1017.8 hPa SW 2.4 mph /  3.9 km/h 2.4 mph /  3.9 km/h 70 % 0 in /  0.0 mm
22:33 74.3 °F /  23.5 °C 63.9 °F /  17.7 °C 30.1 in /  1017.8 hPa SW 2.3 mph /  3.7 km/h 2.3 mph /  3.7 km/h 70 % 0 in /  0.0 mm
22:39 74.3 °F /  23.5 °C 63.9 °F /  17.7 °C 30.1 in /  1017.8 hPa WSW 2.3 mph /  3.7 km/h 2.3 mph /  3.7 km/h 70 % 0 in /  0.0 mm
22:43 74.1 °F /  23.4 °C 63.7 °F /  17.6 °C 30.1 in /  1018.8 hPa WSW 2.3 mph /  3.7 km/h 2.3 mph /  3.7 km/h 70 % 0 in /  0.0 mm
22:48 74.1 °F /  23.4 °C 63.7 °F /  17.6 °C 30.1 in /  1018.8 hPa WSW 2.3 mph /  3.7 km/h 2.3 mph /  3.7 km/h 70 % 0 in /  0.0 mm
22:53 74.1 °F /  23.4 °C 64 °F /  17.8 °C 30.1 in /  1018.8 hPa SW 2.3 mph /  3.7 km/h 2.3 mph /  3.7 km/h 71 % 0 in /  0.0 mm
22:58 74.1 °F /  23.4 °C 64 °F /  17.8 °C 30.1 in /  1017.8 hPa SW 2.3 mph /  3.7 km/h 2.3 mph /  3.7 km/h 71 % 0 in /  0.0 mm
23:03 73.9 °F /  23.3 °C 63.9 °F /  17.7 °C 30.1 in /  1017.8 hPa SW 2.3 mph /  3.7 km/h 2.3 mph /  3.7 km/h 71 % 0 in /  0.0 mm
23:08 73.9 °F /  23.3 °C 63.9 °F /  17.7 °C 30.1 in /  1017.8 hPa WSW 2.3 mph /  3.7 km/h 2.3 mph /  3.7 km/h 71 % 0 in /  0.0 mm
23:13 73.9 °F /  23.3 °C 63.9 °F /  17.7 °C 30.1 in /  1018.8 hPa SW 2.2 mph /  3.5 km/h   71 % 0 in /  0.0 mm
23:18 73.8 °F /  23.2 °C 63.9 °F /  17.7 °C 30.1 in /  1018.8 hPa SW 2.3 mph /  3.7 km/h 2.3 mph /  3.7 km/h 71 % 0 in /  0.0 mm
23:23 73.8 °F /  23.2 °C 63.9 °F /  17.7 °C 30.1 in /  1018.8 hPa SW 2.4 mph /  3.9 km/h 2.6 mph /  4.2 km/h 71 % 0 in /  0.0 mm
23:28 73.6 °F /  23.1 °C 63.7 °F /  17.6 °C 30.1 in /  1017.8 hPa WSW 2.4 mph /  3.9 km/h 2.4 mph /  3.9 km/h 71 % 0 in /  0.0 mm
23:33 73.4 °F /  23.0 °C 63.9 °F /  17.7 °C 30.1 in /  1017.8 hPa WSW 2.3 mph /  3.7 km/h 2.3 mph /  3.7 km/h 72 % 0 in /  0.0 mm
23:38 73.4 °F /  23.0 °C 63.9 °F /  17.7 °C 30.1 in /  1017.8 hPa SW 2.3 mph /  3.7 km/h 2.3 mph /  3.7 km/h 72 % 0 in /  0.0 mm
23:43 73.2 °F /  22.9 °C 63.7 °F /  17.6 °C 30.1 in /  1017.8 hPa WSW 2.3 mph /  3.7 km/h 2.3 mph /  3.7 km/h 72 % 0 in /  0.0 mm
23:48 73.2 °F /  22.9 °C 63.7 °F /  17.6 °C 30.1 in /  1017.8 hPa WSW 2.3 mph /  3.7 km/h 2.3 mph /  3.7 km/h 72 % 0 in /  0.0 mm
23:53 73.2 °F /  22.9 °C 63.7 °F /  17.6 °C 30.1 in /  1017.8 hPa West 2.3 mph /  3.7 km/h 2.3 mph /  3.7 km/h 72 % 0 in /  0.0 mm
23:58 73.2 °F /  22.9 °C 64 °F /  17.8 °C 30.1 in /  1018.8 hPa SW 2.3 mph /  3.7 km/h 2.3 mph /  3.7 km/h 73 % 0 in /  0.0 mm
Meteo Sesrovires
Elogis d' Weather Underground - 4 mb

Guio original per  Jim McMurry - jmcmurry@mwt.net Adaptat per a la plantilla per  Wim van der Kuil - Leuven-Template.eu

Trobareu la nostra informacio del temps tambe a:

Weather Underground

AWEKAS